sensor_id;sensor_type;location;lat;lon;timestamp;P1;durP1;ratioP1;P2;durP2;ratioP2
33876;SDS011;20166;51.738;7.158;2024-03-23T00:54:26;5.10;;;2.77;;
33876;SDS011;20166;51.738;7.158;2024-03-23T00:57:12;2.27;;;1.93;;
33876;SDS011;20166;51.738;7.158;2024-03-23T00:59:56;5.53;;;2.13;;
33876;SDS011;20166;51.738;7.158;2024-03-23T01:02:42;6.77;;;1.83;;
33876;SDS011;20166;51.738;7.158;2024-03-23T01:05:26;1.23;;;1.13;;
33876;SDS011;20166;51.738;7.158;2024-03-23T01:08:12;2.33;;;2.13;;
33876;SDS011;20166;51.738;7.158;2024-03-23T01:10:58;7.60;;;1.90;;
33876;SDS011;20166;51.738;7.158;2024-03-23T01:13:45;3.73;;;1.70;;
33876;SDS011;20166;51.738;7.158;2024-03-23T01:16:29;5.57;;;2.83;;
33876;SDS011;20166;51.738;7.158;2024-03-23T01:19:15;6.70;;;1.77;;
33876;SDS011;20166;51.738;7.158;2024-03-23T01:21:59;4.23;;;1.77;;
33876;SDS011;20166;51.738;7.158;2024-03-23T01:24:45;1.77;;;1.30;;
33876;SDS011;20166;51.738;7.158;2024-03-23T01:27:31;3.97;;;1.43;;
33876;SDS011;20166;51.738;7.158;2024-03-23T01:30:16;4.90;;;2.80;;
33876;SDS011;20166;51.738;7.158;2024-03-23T01:33:01;5.73;;;1.70;;
33876;SDS011;20166;51.738;7.158;2024-03-23T01:35:47;7.07;;;1.80;;
33876;SDS011;20166;51.738;7.158;2024-03-23T01:38:31;3.97;;;2.23;;
33876;SDS011;20166;51.738;7.158;2024-03-23T01:41:17;3.13;;;1.73;;
33876;SDS011;20166;51.738;7.158;2024-03-23T01:44:04;1.93;;;1.37;;
33876;SDS011;20166;51.738;7.158;2024-03-23T01:46:51;3.70;;;1.70;;
33876;SDS011;20166;51.738;7.158;2024-03-23T01:49:37;1.83;;;1.67;;
33876;SDS011;20166;51.738;7.158;2024-03-23T01:52:21;10.73;;;2.30;;
33876;SDS011;20166;51.738;7.158;2024-03-23T01:55:07;1.87;;;1.50;;
33876;SDS011;20166;51.738;7.158;2024-03-23T01:57:53;4.73;;;1.97;;
33876;SDS011;20166;51.738;7.158;2024-03-23T02:00:42;1.63;;;1.47;;
33876;SDS011;20166;51.738;7.158;2024-03-23T02:03:27;3.47;;;2.00;;
33876;SDS011;20166;51.738;7.158;2024-03-23T02:06:13;3.90;;;2.10;;
33876;SDS011;20166;51.738;7.158;2024-03-23T02:08:58;2.00;;;1.60;;
33876;SDS011;20166;51.738;7.158;2024-03-23T02:11:45;3.50;;;1.47;;
33876;SDS011;20166;51.738;7.158;2024-03-23T02:14:29;6.23;;;1.30;;
33876;SDS011;20166;51.738;7.158;2024-03-23T02:17:17;2.03;;;1.50;;
33876;SDS011;20166;51.738;7.158;2024-03-23T02:20:02;4.40;;;1.77;;
33876;SDS011;20166;51.738;7.158;2024-03-23T02:22:52;6.10;;;1.97;;
33876;SDS011;20166;51.738;7.158;2024-03-23T02:25:37;3.03;;;1.60;;
33876;SDS011;20166;51.738;7.158;2024-03-23T02:28:22;1.73;;;1.30;;
33876;SDS011;20166;51.738;7.158;2024-03-23T02:31:08;1.90;;;1.70;;
33876;SDS011;20166;51.738;7.158;2024-03-23T02:33:53;2.53;;;1.43;;
33876;SDS011;20166;51.738;7.158;2024-03-23T02:36:38;9.97;;;2.47;;
33876;SDS011;20166;51.738;7.158;2024-03-23T02:39:24;1.53;;;1.43;;
33876;SDS011;20166;51.738;7.158;2024-03-23T02:42:10;2.53;;;2.13;;
33876;SDS011;20166;51.738;7.158;2024-03-23T02:44:55;2.03;;;1.50;;
33876;SDS011;20166;51.738;7.158;2024-03-23T02:47:40;4.10;;;1.83;;
33876;SDS011;20166;51.738;7.158;2024-03-23T02:50:25;1.53;;;1.43;;
33876;SDS011;20166;51.738;7.158;2024-03-23T02:53:11;3.53;;;1.50;;
33876;SDS011;20166;51.738;7.158;2024-03-23T02:55:58;1.63;;;1.53;;
33876;SDS011;20166;51.738;7.158;2024-03-23T02:58:44;2.17;;;1.87;;
33876;SDS011;20166;51.738;7.158;2024-03-23T03:01:28;2.93;;;1.83;;
33876;SDS011;20166;51.738;7.158;2024-03-23T03:04:14;2.20;;;1.67;;
33876;SDS011;20166;51.738;7.158;2024-03-23T03:06:58;9.57;;;2.27;;
33876;SDS011;20166;51.738;7.158;2024-03-23T03:09:44;3.63;;;1.60;;
33876;SDS011;20166;51.738;7.158;2024-03-23T03:12:31;2.73;;;1.23;;
33876;SDS011;20166;51.738;7.158;2024-03-23T03:15:16;3.50;;;1.93;;
33876;SDS011;20166;51.738;7.158;2024-03-23T03:18:02;3.83;;;1.77;;
33876;SDS011;20166;51.738;7.158;2024-03-23T03:20:46;1.33;;;1.23;;
33876;SDS011;20166;51.738;7.158;2024-03-23T03:23:31;5.30;;;2.43;;
33876;SDS011;20166;51.738;7.158;2024-03-23T03:26:17;3.87;;;1.33;;
33876;SDS011;20166;51.738;7.158;2024-03-23T03:29:03;2.73;;;1.63;;
33876;SDS011;20166;51.738;7.158;2024-03-23T03:31:48;1.70;;;1.60;;
33876;SDS011;20166;51.738;7.158;2024-03-23T03:34:34;4.33;;;1.77;;
33876;SDS011;20166;51.738;7.158;2024-03-23T03:37:18;1.37;;;1.27;;
33876;SDS011;20166;51.738;7.158;2024-03-23T03:40:04;1.67;;;1.37;;
33876;SDS011;20166;51.738;7.158;2024-03-23T03:42:52;5.30;;;1.93;;
33876;SDS011;20166;51.738;7.158;2024-03-23T03:45:39;5.83;;;1.27;;
33876;SDS011;20166;51.738;7.158;2024-03-23T03:48:24;1.67;;;1.57;;
33876;SDS011;20166;51.738;7.158;2024-03-23T03:51:10;2.40;;;1.37;;
33876;SDS011;20166;51.738;7.158;2024-03-23T03:53:55;2.20;;;1.70;;
33876;SDS011;20166;51.738;7.158;2024-03-23T03:56:40;1.83;;;1.50;;
33876;SDS011;20166;51.738;7.158;2024-03-23T03:59:25;1.90;;;1.43;;
33876;SDS011;20166;51.738;7.158;2024-03-23T04:02:12;1.13;;;1.13;;
33876;SDS011;20166;51.738;7.158;2024-03-23T04:04:57;1.23;;;1.13;;
33876;SDS011;20166;51.738;7.158;2024-03-23T04:07:43;8.03;;;1.73;;
33876;SDS011;20166;51.738;7.158;2024-03-23T04:10:28;4.67;;;1.47;;
33876;SDS011;20166;51.738;7.158;2024-03-23T04:13:14;1.07;;;0.90;;
33876;SDS011;20166;51.738;7.158;2024-03-23T04:15:58;3.23;;;2.17;;
33876;SDS011;20166;51.738;7.158;2024-03-23T04:18:45;1.20;;;1.10;;
33876;SDS011;20166;51.738;7.158;2024-03-23T04:21:31;3.60;;;2.07;;
33876;SDS011;20166;51.738;7.158;2024-03-23T04:24:16;1.57;;;1.47;;
33876;SDS011;20166;51.738;7.158;2024-03-23T04:27:03;8.07;;;1.73;;
33876;SDS011;20166;51.738;7.158;2024-03-23T04:29:50;2.97;;;1.60;;
33876;SDS011;20166;51.738;7.158;2024-03-23T04:32:35;3.27;;;1.20;;
33876;SDS011;20166;51.738;7.158;2024-03-23T04:35:22;4.30;;;1.67;;
33876;SDS011;20166;51.738;7.158;2024-03-23T04:38:09;0.83;;;0.83;;
33876;SDS011;20166;51.738;7.158;2024-03-23T04:40:55;1.20;;;1.20;;
33876;SDS011;20166;51.738;7.158;2024-03-23T04:43:41;0.97;;;0.97;;
33876;SDS011;20166;51.738;7.158;2024-03-23T04:46:26;1.67;;;1.50;;
33876;SDS011;20166;51.738;7.158;2024-03-23T04:49:12;2.13;;;1.30;;
33876;SDS011;20166;51.738;7.158;2024-03-23T04:51:59;2.93;;;1.47;;
33876;SDS011;20166;51.738;7.158;2024-03-23T04:54:44;7.17;;;1.60;;
33876;SDS011;20166;51.738;7.158;2024-03-23T04:57:30;1.73;;;1.63;;
33876;SDS011;20166;51.738;7.158;2024-03-23T05:00:16;7.00;;;1.50;;
33876;SDS011;20166;51.738;7.158;2024-03-23T05:03:01;2.37;;;1.47;;
33876;SDS011;20166;51.738;7.158;2024-03-23T05:05:47;3.63;;;1.47;;
33876;SDS011;20166;51.738;7.158;2024-03-23T05:08:33;1.80;;;1.50;;
33876;SDS011;20166;51.738;7.158;2024-03-23T05:11:18;1.83;;;1.40;;
33876;SDS011;20166;51.738;7.158;2024-03-23T05:14:04;1.57;;;1.27;;
33876;SDS011;20166;51.738;7.158;2024-03-23T05:16:50;3.27;;;1.20;;
33876;SDS011;20166;51.738;7.158;2024-03-23T05:19:35;1.43;;;1.43;;
33876;SDS011;20166;51.738;7.158;2024-03-23T05:22:20;3.90;;;1.43;;
33876;SDS011;20166;51.738;7.158;2024-03-23T05:25:06;1.77;;;1.60;;
33876;SDS011;20166;51.738;7.158;2024-03-23T05:27:53;1.63;;;1.40;;
33876;SDS011;20166;51.738;7.158;2024-03-23T05:30:38;3.33;;;1.60;;
33876;SDS011;20166;51.738;7.158;2024-03-23T05:33:24;1.33;;;1.23;;
33876;SDS011;20166;51.738;7.158;2024-03-23T05:36:08;0.93;;;0.93;;
33876;SDS011;20166;51.738;7.158;2024-03-23T05:38:56;1.60;;;1.47;;
33876;SDS011;20166;51.738;7.158;2024-03-23T05:41:42;1.63;;;1.53;;
33876;SDS011;20166;51.738;7.158;2024-03-23T05:44:27;5.00;;;2.53;;
33876;SDS011;20166;51.738;7.158;2024-03-23T05:47:12;2.33;;;1.50;;
33876;SDS011;20166;51.738;7.158;2024-03-23T05:49:58;2.50;;;2.07;;
33876;SDS011;20166;51.738;7.158;2024-03-23T05:52:43;1.60;;;1.50;;
33876;SDS011;20166;51.738;7.158;2024-03-23T05:55:29;3.13;;;2.27;;
33876;SDS011;20166;51.738;7.158;2024-03-23T05:58:15;5.13;;;2.03;;
33876;SDS011;20166;51.738;7.158;2024-03-23T06:01:02;4.73;;;1.73;;
33876;SDS011;20166;51.738;7.158;2024-03-23T06:03:47;3.77;;;2.07;;
33876;SDS011;20166;51.738;7.158;2024-03-23T06:06:33;3.57;;;2.30;;
33876;SDS011;20166;51.738;7.158;2024-03-23T06:09:19;2.37;;;1.83;;
33876;SDS011;20166;51.738;7.158;2024-03-23T06:12:05;2.47;;;1.90;;
33876;SDS011;20166;51.738;7.158;2024-03-23T06:14:51;2.67;;;1.50;;
33876;SDS011;20166;51.738;7.158;2024-03-23T06:17:37;3.80;;;2.17;;
33876;SDS011;20166;51.738;7.158;2024-03-23T06:20:21;1.77;;;1.67;;
33876;SDS011;20166;51.738;7.158;2024-03-23T06:23:07;2.77;;;1.70;;
33876;SDS011;20166;51.738;7.158;2024-03-23T06:25:53;4.23;;;1.63;;
33876;SDS011;20166;51.738;7.158;2024-03-23T06:28:37;2.03;;;1.67;;
33876;SDS011;20166;51.738;7.158;2024-03-23T06:31:23;6.67;;;2.20;;
33876;SDS011;20166;51.738;7.158;2024-03-23T06:34:08;7.80;;;2.40;;
33876;SDS011;20166;51.738;7.158;2024-03-23T06:36:54;5.53;;;2.63;;
33876;SDS011;20166;51.738;7.158;2024-03-23T06:39:38;3.23;;;2.63;;
33876;SDS011;20166;51.738;7.158;2024-03-23T06:42:24;8.50;;;2.27;;
33876;SDS011;20166;51.738;7.158;2024-03-23T06:45:09;9.17;;;3.80;;
33876;SDS011;20166;51.738;7.158;2024-03-23T06:47:56;2.67;;;2.47;;
33876;SDS011;20166;51.738;7.158;2024-03-23T06:50:42;2.20;;;2.00;;
33876;SDS011;20166;51.738;7.158;2024-03-23T06:53:26;2.27;;;2.03;;
33876;SDS011;20166;51.738;7.158;2024-03-23T06:56:12;3.67;;;2.83;;
33876;SDS011;20166;51.738;7.158;2024-03-23T06:58:56;11.30;;;3.60;;
33876;SDS011;20166;51.738;7.158;2024-03-23T07:01:42;2.70;;;2.33;;
33876;SDS011;20166;51.738;7.158;2024-03-23T07:04:29;4.63;;;2.13;;
33876;SDS011;20166;51.738;7.158;2024-03-23T07:07:14;7.97;;;2.60;;
33876;SDS011;20166;51.738;7.158;2024-03-23T07:09:59;3.33;;;2.30;;
33876;SDS011;20166;51.738;7.158;2024-03-23T07:12:44;6.77;;;2.80;;
33876;SDS011;20166;51.738;7.158;2024-03-23T07:15:30;4.50;;;2.53;;
33876;SDS011;20166;51.738;7.158;2024-03-23T07:18:14;3.03;;;2.50;;
33876;SDS011;20166;51.738;7.158;2024-03-23T07:21:01;6.57;;;3.37;;
33876;SDS011;20166;51.738;7.158;2024-03-23T07:23:47;3.70;;;2.90;;
33876;SDS011;20166;51.738;7.158;2024-03-23T07:26:33;3.13;;;2.10;;
33876;SDS011;20166;51.738;7.158;2024-03-23T07:29:17;3.90;;;2.70;;
33876;SDS011;20166;51.738;7.158;2024-03-23T07:32:03;3.53;;;2.07;;
33876;SDS011;20166;51.738;7.158;2024-03-23T07:34:48;5.17;;;2.53;;
33876;SDS011;20166;51.738;7.158;2024-03-23T07:37:35;8.60;;;2.67;;
33876;SDS011;20166;51.738;7.158;2024-03-23T07:40:19;4.80;;;2.67;;
33876;SDS011;20166;51.738;7.158;2024-03-23T07:43:05;8.27;;;3.10;;
33876;SDS011;20166;51.738;7.158;2024-03-23T07:45:52;10.20;;;3.10;;
33876;SDS011;20166;51.738;7.158;2024-03-23T07:48:38;6.37;;;3.07;;
33876;SDS011;20166;51.738;7.158;2024-03-23T07:51:24;6.47;;;2.80;;
33876;SDS011;20166;51.738;7.158;2024-03-23T07:54:11;7.43;;;2.93;;
33876;SDS011;20166;51.738;7.158;2024-03-23T07:56:55;5.37;;;2.40;;
33876;SDS011;20166;51.738;7.158;2024-03-23T07:59:41;3.83;;;2.23;;
33876;SDS011;20166;51.738;7.158;2024-03-23T08:02:25;8.07;;;2.30;;
33876;SDS011;20166;51.738;7.158;2024-03-23T08:05:11;2.80;;;2.40;;
33876;SDS011;20166;51.738;7.158;2024-03-23T08:07:55;2.73;;;2.10;;
33876;SDS011;20166;51.738;7.158;2024-03-23T08:10:49;2.73;;;1.80;;
33876;SDS011;20166;51.738;7.158;2024-03-23T08:13:34;4.07;;;1.90;;
33876;SDS011;20166;51.738;7.158;2024-03-23T08:16:21;5.13;;;2.33;;
33876;SDS011;20166;51.738;7.158;2024-03-23T08:19:07;2.93;;;1.97;;
33876;SDS011;20166;51.738;7.158;2024-03-23T08:21:52;5.63;;;2.67;;
33876;SDS011;20166;51.738;7.158;2024-03-23T08:24:38;7.63;;;1.67;;
33876;SDS011;20166;51.738;7.158;2024-03-23T08:27:24;6.80;;;2.13;;
33876;SDS011;20166;51.738;7.158;2024-03-23T08:30:10;1.30;;;1.20;;
33876;SDS011;20166;51.738;7.158;2024-03-23T08:32:55;16.17;;;2.03;;
33876;SDS011;20166;51.738;7.158;2024-03-23T08:35:41;2.70;;;1.90;;
33876;SDS011;20166;51.738;7.158;2024-03-23T08:38:26;3.73;;;2.17;;
33876;SDS011;20166;51.738;7.158;2024-03-23T08:41:12;5.37;;;1.80;;
33876;SDS011;20166;51.738;7.158;2024-03-23T08:43:58;8.53;;;2.20;;
33876;SDS011;20166;51.738;7.158;2024-03-23T08:46:43;3.37;;;1.67;;
33876;SDS011;20166;51.738;7.158;2024-03-23T08:49:28;5.00;;;2.33;;
33876;SDS011;20166;51.738;7.158;2024-03-23T08:52:14;5.93;;;2.40;;
33876;SDS011;20166;51.738;7.158;2024-03-23T08:54:58;3.27;;;2.50;;
33876;SDS011;20166;51.738;7.158;2024-03-23T08:57:44;5.80;;;1.83;;
33876;SDS011;20166;51.738;7.158;2024-03-23T09:00:30;4.83;;;1.90;;
33876;SDS011;20166;51.738;7.158;2024-03-23T09:03:16;2.57;;;2.37;;
33876;SDS011;20166;51.738;7.158;2024-03-23T09:06:00;10.80;;;2.60;;
33876;SDS011;20166;51.738;7.158;2024-03-23T09:08:47;5.00;;;2.30;;
33876;SDS011;20166;51.738;7.158;2024-03-23T09:11:31;2.70;;;2.07;;
33876;SDS011;20166;51.738;7.158;2024-03-23T09:14:17;12.03;;;2.33;;
33876;SDS011;20166;51.738;7.158;2024-03-23T09:17:03;5.07;;;1.70;;
33876;SDS011;20166;51.738;7.158;2024-03-23T09:19:49;3.23;;;2.33;;
33876;SDS011;20166;51.738;7.158;2024-03-23T09:22:33;2.73;;;2.13;;
33876;SDS011;20166;51.738;7.158;2024-03-23T09:25:19;5.50;;;2.17;;
33876;SDS011;20166;51.738;7.158;2024-03-23T09:28:04;2.93;;;2.67;;
33876;SDS011;20166;51.738;7.158;2024-03-23T09:30:50;5.33;;;2.10;;
33876;SDS011;20166;51.738;7.158;2024-03-23T09:33:36;5.03;;;2.33;;
33876;SDS011;20166;51.738;7.158;2024-03-23T09:36:22;8.27;;;2.70;;
33876;SDS011;20166;51.738;7.158;2024-03-23T09:39:07;1.57;;;1.47;;
33876;SDS011;20166;51.738;7.158;2024-03-23T09:41:56;7.13;;;1.90;;
33876;SDS011;20166;51.738;7.158;2024-03-23T09:44:41;3.77;;;2.47;;
33876;SDS011;20166;51.738;7.158;2024-03-23T09:47:26;7.83;;;2.10;;
33876;SDS011;20166;51.738;7.158;2024-03-23T09:50:12;1.70;;;1.60;;
33876;SDS011;20166;51.738;7.158;2024-03-23T09:52:58;2.63;;;1.40;;
33876;SDS011;20166;51.738;7.158;2024-03-23T09:55:44;9.73;;;2.23;;
33876;SDS011;20166;51.738;7.158;2024-03-23T09:58:30;1.60;;;1.50;;
33876;SDS011;20166;51.738;7.158;2024-03-23T10:01:16;1.57;;;1.47;;
33876;SDS011;20166;51.738;7.158;2024-03-23T10:04:02;6.33;;;2.10;;
33876;SDS011;20166;51.738;7.158;2024-03-23T10:06:48;2.07;;;1.50;;
33876;SDS011;20166;51.738;7.158;2024-03-23T10:09:34;1.20;;;1.07;;
33876;SDS011;20166;51.738;7.158;2024-03-23T10:12:19;1.77;;;1.63;;
33876;SDS011;20166;51.738;7.158;2024-03-23T10:15:05;1.50;;;1.40;;
33876;SDS011;20166;51.738;7.158;2024-03-23T10:18:02;1.67;;;1.57;;
33876;SDS011;20166;51.738;7.158;2024-03-23T10:21:06;2.27;;;1.90;;
33876;SDS011;20166;51.738;7.158;2024-03-23T10:23:53;2.63;;;1.13;;
33876;SDS011;20166;51.738;7.158;2024-03-23T10:26:39;4.20;;;1.20;;
33876;SDS011;20166;51.738;7.158;2024-03-23T10:29:25;4.80;;;1.77;;
33876;SDS011;20166;51.738;7.158;2024-03-23T10:32:12;4.27;;;1.53;;
33876;SDS011;20166;51.738;7.158;2024-03-23T10:35:13;2.53;;;1.17;;
33876;SDS011;20166;51.738;7.158;2024-03-23T10:37:58;2.00;;;1.23;;
33876;SDS011;20166;51.738;7.158;2024-03-23T10:40:46;1.33;;;1.13;;
33876;SDS011;20166;51.738;7.158;2024-03-23T10:43:30;1.17;;;1.13;;
33876;SDS011;20166;51.738;7.158;2024-03-23T10:46:18;1.13;;;1.00;;
33876;SDS011;20166;51.738;7.158;2024-03-23T10:49:03;9.30;;;1.63;;
33876;SDS011;20166;51.738;7.158;2024-03-23T10:51:49;1.90;;;1.13;;
33876;SDS011;20166;51.738;7.158;2024-03-23T10:54:33;1.10;;;1.10;;
33876;SDS011;20166;51.738;7.158;2024-03-23T10:57:21;1.27;;;1.20;;
33876;SDS011;20166;51.738;7.158;2024-03-23T11:00:13;5.80;;;1.57;;
33876;SDS011;20166;51.738;7.158;2024-03-23T11:03:05;0.87;;;0.87;;
33876;SDS011;20166;51.738;7.158;2024-03-23T11:06:33;1.97;;;1.00;;
33876;SDS011;20166;51.738;7.158;2024-03-23T11:09:38;1.50;;;1.10;;
33876;SDS011;20166;51.738;7.158;2024-03-23T11:12:28;0.80;;;0.80;;
33876;SDS011;20166;51.738;7.158;2024-03-23T11:15:17;1.33;;;0.90;;
33876;SDS011;20166;51.738;7.158;2024-03-23T11:18:02;1.00;;;1.00;;
33876;SDS011;20166;51.738;7.158;2024-03-23T11:20:49;3.60;;;1.10;;
33876;SDS011;20166;51.738;7.158;2024-03-23T11:23:34;1.00;;;0.80;;
33876;SDS011;20166;51.738;7.158;2024-03-23T11:26:19;4.63;;;1.40;;
33876;SDS011;20166;51.738;7.158;2024-03-23T11:29:10;0.97;;;0.97;;
33876;SDS011;20166;51.738;7.158;2024-03-23T11:31:54;0.80;;;0.80;;
33876;SDS011;20166;51.738;7.158;2024-03-23T11:34:40;2.33;;;1.07;;
33876;SDS011;20166;51.738;7.158;2024-03-23T11:37:24;1.93;;;1.13;;
33876;SDS011;20166;51.738;7.158;2024-03-23T11:43:04;0.63;;;0.63;;
33876;SDS011;20166;51.738;7.158;2024-03-23T11:45:52;2.20;;;1.13;;
33876;SDS011;20166;51.738;7.158;2024-03-23T11:48:39;0.83;;;0.83;;
33876;SDS011;20166;51.738;7.158;2024-03-23T11:51:24;0.77;;;0.77;;
33876;SDS011;20166;51.738;7.158;2024-03-23T11:54:09;2.83;;;1.37;;
33876;SDS011;20166;51.738;7.158;2024-03-23T11:56:55;1.20;;;1.03;;
33876;SDS011;20166;51.738;7.158;2024-03-23T11:59:41;8.03;;;1.33;;
33876;SDS011;20166;51.738;7.158;2024-03-23T12:02:29;3.30;;;1.20;;
33876;SDS011;20166;51.738;7.158;2024-03-23T12:05:14;1.77;;;1.17;;
33876;SDS011;20166;51.738;7.158;2024-03-23T12:08:19;6.40;;;1.27;;
33876;SDS011;20166;51.738;7.158;2024-03-23T12:11:09;7.80;;;1.33;;
33876;SDS011;20166;51.738;7.158;2024-03-23T12:13:55;2.47;;;1.10;;
33876;SDS011;20166;51.738;7.158;2024-03-23T12:16:45;0.90;;;0.90;;
33876;SDS011;20166;51.738;7.158;2024-03-23T12:19:30;1.00;;;1.00;;
33876;SDS011;20166;51.738;7.158;2024-03-23T12:22:16;0.83;;;0.83;;
33876;SDS011;20166;51.738;7.158;2024-03-23T12:25:07;5.20;;;1.23;;
33876;SDS011;20166;51.738;7.158;2024-03-23T12:27:53;0.90;;;0.90;;
33876;SDS011;20166;51.738;7.158;2024-03-23T12:30:38;1.10;;;1.00;;
33876;SDS011;20166;51.738;7.158;2024-03-23T12:33:25;2.27;;;0.93;;
33876;SDS011;20166;51.738;7.158;2024-03-23T12:36:10;0.63;;;0.63;;
33876;SDS011;20166;51.738;7.158;2024-03-23T12:38:56;9.70;;;1.50;;
33876;SDS011;20166;51.738;7.158;2024-03-23T12:41:41;3.00;;;1.10;;
33876;SDS011;20166;51.738;7.158;2024-03-23T12:44:26;0.70;;;0.70;;
33876;SDS011;20166;51.738;7.158;2024-03-23T12:47:11;2.03;;;0.87;;
33876;SDS011;20166;51.738;7.158;2024-03-23T12:49:57;2.47;;;1.33;;
33876;SDS011;20166;51.738;7.158;2024-03-23T12:52:43;1.37;;;1.27;;
33876;SDS011;20166;51.738;7.158;2024-03-23T12:55:28;5.27;;;1.00;;
33876;SDS011;20166;51.738;7.158;2024-03-23T12:58:13;0.87;;;0.80;;
33876;SDS011;20166;51.738;7.158;2024-03-23T13:00:59;1.60;;;1.20;;
33876;SDS011;20166;51.738;7.158;2024-03-23T13:03:44;1.20;;;1.10;;
33876;SDS011;20166;51.738;7.158;2024-03-23T13:06:31;1.30;;;1.20;;
33876;SDS011;20166;51.738;7.158;2024-03-23T13:09:19;4.03;;;1.47;;
33876;SDS011;20166;51.738;7.158;2024-03-23T13:12:05;2.00;;;1.50;;
33876;SDS011;20166;51.738;7.158;2024-03-23T13:14:50;1.73;;;1.40;;
33876;SDS011;20166;51.738;7.158;2024-03-23T13:17:36;1.40;;;1.10;;
33876;SDS011;20166;51.738;7.158;2024-03-23T13:20:21;5.13;;;1.20;;
33876;SDS011;20166;51.738;7.158;2024-03-23T13:23:06;1.87;;;1.43;;
33876;SDS011;20166;51.738;7.158;2024-03-23T13:25:52;2.47;;;0.93;;
33876;SDS011;20166;51.738;7.158;2024-03-23T13:28:39;5.50;;;1.30;;
33876;SDS011;20166;51.738;7.158;2024-03-23T13:31:23;5.27;;;1.10;;
33876;SDS011;20166;51.738;7.158;2024-03-23T13:34:09;0.67;;;0.67;;
33876;SDS011;20166;51.738;7.158;2024-03-23T13:36:54;1.67;;;0.90;;
33876;SDS011;20166;51.738;7.158;2024-03-23T13:39:40;0.70;;;0.70;;
33876;SDS011;20166;51.738;7.158;2024-03-23T13:42:27;3.47;;;0.83;;
33876;SDS011;20166;51.738;7.158;2024-03-23T13:45:13;0.70;;;0.70;;
33876;SDS011;20166;51.738;7.158;2024-03-23T13:48:00;1.63;;;1.03;;
33876;SDS011;20166;51.738;7.158;2024-03-23T13:50:46;1.83;;;1.10;;
33876;SDS011;20166;51.738;7.158;2024-03-23T13:53:32;0.80;;;0.80;;
33876;SDS011;20166;51.738;7.158;2024-03-23T13:56:18;1.17;;;0.90;;
33876;SDS011;20166;51.738;7.158;2024-03-23T13:59:04;1.53;;;1.33;;
33876;SDS011;20166;51.738;7.158;2024-03-23T14:01:50;1.03;;;0.97;;
33876;SDS011;20166;51.738;7.158;2024-03-23T14:04:35;2.90;;;0.93;;
33876;SDS011;20166;51.738;7.158;2024-03-23T14:07:22;1.33;;;0.97;;
33876;SDS011;20166;51.738;7.158;2024-03-23T14:10:07;0.80;;;0.80;;
33876;SDS011;20166;51.738;7.158;2024-03-23T14:12:54;1.60;;;1.00;;
33876;SDS011;20166;51.738;7.158;2024-03-23T14:15:40;0.77;;;0.77;;
33876;SDS011;20166;51.738;7.158;2024-03-23T14:18:26;1.97;;;0.90;;
33876;SDS011;20166;51.738;7.158;2024-03-23T14:21:11;2.73;;;0.93;;
33876;SDS011;20166;51.738;7.158;2024-03-23T14:23:56;4.60;;;1.07;;
33876;SDS011;20166;51.738;7.158;2024-03-23T14:26:42;0.80;;;0.80;;
33876;SDS011;20166;51.738;7.158;2024-03-23T14:29:27;1.83;;;0.90;;
33876;SDS011;20166;51.738;7.158;2024-03-23T14:32:13;1.00;;;0.90;;
33876;SDS011;20166;51.738;7.158;2024-03-23T14:35:00;0.87;;;0.83;;
33876;SDS011;20166;51.738;7.158;2024-03-23T14:37:44;1.23;;;1.00;;
33876;SDS011;20166;51.738;7.158;2024-03-23T14:40:31;0.80;;;0.80;;
33876;SDS011;20166;51.738;7.158;2024-03-23T14:43:15;2.00;;;1.40;;
33876;SDS011;20166;51.738;7.158;2024-03-23T14:46:08;1.47;;;1.37;;
33876;SDS011;20166;51.738;7.158;2024-03-23T14:48:54;1.43;;;0.90;;
33876;SDS011;20166;51.738;7.158;2024-03-23T14:51:40;2.27;;;1.17;;
33876;SDS011;20166;51.738;7.158;2024-03-23T14:54:24;1.20;;;1.10;;
33876;SDS011;20166;51.738;7.158;2024-03-23T14:57:10;0.87;;;0.87;;
33876;SDS011;20166;51.738;7.158;2024-03-23T14:59:54;0.90;;;0.90;;
33876;SDS011;20166;51.738;7.158;2024-03-23T15:02:40;1.17;;;0.80;;
33876;SDS011;20166;51.738;7.158;2024-03-23T15:05:26;1.27;;;1.10;;
33876;SDS011;20166;51.738;7.158;2024-03-23T15:08:12;0.90;;;0.90;;
33876;SDS011;20166;51.738;7.158;2024-03-23T15:10:58;0.67;;;0.67;;
33876;SDS011;20166;51.738;7.158;2024-03-23T15:13:44;0.90;;;0.80;;
33876;SDS011;20166;51.738;7.158;2024-03-23T15:16:31;3.30;;;1.17;;
33876;SDS011;20166;51.738;7.158;2024-03-23T15:19:16;1.87;;;1.00;;
33876;SDS011;20166;51.738;7.158;2024-03-23T15:22:02;0.77;;;0.77;;
33876;SDS011;20166;51.738;7.158;2024-03-23T15:24:48;0.80;;;0.80;;
33876;SDS011;20166;51.738;7.158;2024-03-23T15:27:34;0.80;;;0.80;;
33876;SDS011;20166;51.738;7.158;2024-03-23T15:30:18;0.50;;;0.50;;
33876;SDS011;20166;51.738;7.158;2024-03-23T15:33:04;1.50;;;0.90;;
33876;SDS011;20166;51.738;7.158;2024-03-23T15:35:49;0.70;;;0.60;;
33876;SDS011;20166;51.738;7.158;2024-03-23T15:38:36;1.03;;;0.93;;
33876;SDS011;20166;51.738;7.158;2024-03-23T15:41:22;0.67;;;0.67;;
33876;SDS011;20166;51.738;7.158;2024-03-23T15:44:10;0.63;;;0.63;;
33876;SDS011;20166;51.738;7.158;2024-03-23T15:46:55;4.30;;;0.83;;
33876;SDS011;20166;51.738;7.158;2024-03-23T15:49:41;2.33;;;1.00;;
33876;SDS011;20166;51.738;7.158;2024-03-23T15:52:26;0.73;;;0.70;;
33876;SDS011;20166;51.738;7.158;2024-03-23T15:55:13;0.80;;;0.80;;
33876;SDS011;20166;51.738;7.158;2024-03-23T15:57:58;1.60;;;0.90;;
33876;SDS011;20166;51.738;7.158;2024-03-23T16:00:44;2.03;;;0.93;;
33876;SDS011;20166;51.738;7.158;2024-03-23T16:03:28;2.63;;;0.70;;
33876;SDS011;20166;51.738;7.158;2024-03-23T16:06:14;0.70;;;0.70;;
33876;SDS011;20166;51.738;7.158;2024-03-23T16:09:01;0.70;;;0.70;;
33876;SDS011;20166;51.738;7.158;2024-03-23T16:11:47;3.17;;;1.23;;
33876;SDS011;20166;51.738;7.158;2024-03-23T16:14:32;2.23;;;1.03;;
33876;SDS011;20166;51.738;7.158;2024-03-23T16:17:17;0.70;;;0.70;;
33876;SDS011;20166;51.738;7.158;2024-03-23T16:20:03;2.77;;;1.63;;
33876;SDS011;20166;51.738;7.158;2024-03-23T16:22:48;4.13;;;1.00;;
33876;SDS011;20166;51.738;7.158;2024-03-23T16:25:33;0.90;;;0.83;;
33876;SDS011;20166;51.738;7.158;2024-03-23T16:28:20;5.73;;;1.27;;
33876;SDS011;20166;51.738;7.158;2024-03-23T16:31:07;0.73;;;0.70;;
33876;SDS011;20166;51.738;7.158;2024-03-23T16:33:52;2.60;;;1.20;;
33876;SDS011;20166;51.738;7.158;2024-03-23T16:36:38;4.33;;;1.50;;
33876;SDS011;20166;51.738;7.158;2024-03-23T16:39:22;2.13;;;1.47;;
33876;SDS011;20166;51.738;7.158;2024-03-23T16:42:08;2.43;;;1.30;;
33876;SDS011;20166;51.738;7.158;2024-03-23T16:44:54;3.20;;;1.33;;
33876;SDS011;20166;51.738;7.158;2024-03-23T16:47:40;0.90;;;0.90;;
33876;SDS011;20166;51.738;7.158;2024-03-23T16:50:24;4.03;;;0.73;;
33876;SDS011;20166;51.738;7.158;2024-03-23T16:53:10;7.00;;;1.47;;
33876;SDS011;20166;51.738;7.158;2024-03-23T16:55:55;0.70;;;0.70;;
33876;SDS011;20166;51.738;7.158;2024-03-23T16:58:41;1.17;;;1.07;;
33876;SDS011;20166;51.738;7.158;2024-03-23T17:01:27;3.70;;;1.07;;
33876;SDS011;20166;51.738;7.158;2024-03-23T17:04:13;2.50;;;0.97;;
33876;SDS011;20166;51.738;7.158;2024-03-23T17:06:57;0.60;;;0.60;;
33876;SDS011;20166;51.738;7.158;2024-03-23T17:09:46;0.80;;;0.80;;
33876;SDS011;20166;51.738;7.158;2024-03-23T17:12:31;1.17;;;1.03;;
33876;SDS011;20166;51.738;7.158;2024-03-23T17:15:17;1.10;;;1.00;;
33876;SDS011;20166;51.738;7.158;2024-03-23T17:18:06;0.87;;;0.87;;
33876;SDS011;20166;51.738;7.158;2024-03-23T17:20:52;0.80;;;0.80;;
33876;SDS011;20166;51.738;7.158;2024-03-23T17:23:37;0.70;;;0.70;;
33876;SDS011;20166;51.738;7.158;2024-03-23T17:26:22;0.87;;;0.87;;
33876;SDS011;20166;51.738;7.158;2024-03-23T17:29:07;0.93;;;0.87;;
33876;SDS011;20166;51.738;7.158;2024-03-23T17:31:52;1.43;;;0.70;;
33876;SDS011;20166;51.738;7.158;2024-03-23T17:34:39;0.77;;;0.77;;
33876;SDS011;20166;51.738;7.158;2024-03-23T17:37:24;0.90;;;0.90;;